sensor_id;sensor_type;location;lat;lon;timestamp;P1;durP1;ratioP1;P2;durP2;ratioP2
72573;SDS011;60603;52.548;13.420;2022-08-16T00:01:59;23.02;;;16.23;;
72573;SDS011;60603;52.548;13.420;2022-08-16T00:04:25;29.67;;;16.98;;
72573;SDS011;60603;52.548;13.420;2022-08-16T00:06:51;29.05;;;18.33;;
72573;SDS011;60603;52.548;13.420;2022-08-16T00:09:17;28.77;;;16.50;;
72573;SDS011;60603;52.548;13.420;2022-08-16T00:11:43;27.48;;;17.48;;
72573;SDS011;60603;52.548;13.420;2022-08-16T00:14:11;25.02;;;16.85;;
72573;SDS011;60603;52.548;13.420;2022-08-16T00:16:38;25.00;;;16.30;;
72573;SDS011;60603;52.548;13.420;2022-08-16T00:19:04;25.02;;;16.13;;
72573;SDS011;60603;52.548;13.420;2022-08-16T00:21:30;26.33;;;17.58;;
72573;SDS011;60603;52.548;13.420;2022-08-16T00:23:57;24.70;;;16.83;;
72573;SDS011;60603;52.548;13.420;2022-08-16T00:26:23;29.13;;;17.08;;
72573;SDS011;60603;52.548;13.420;2022-08-16T00:28:48;28.50;;;18.42;;
72573;SDS011;60603;52.548;13.420;2022-08-16T00:31:14;26.98;;;18.30;;
72573;SDS011;60603;52.548;13.420;2022-08-16T00:33:40;30.52;;;18.50;;
72573;SDS011;60603;52.548;13.420;2022-08-16T00:36:06;32.08;;;19.42;;
72573;SDS011;60603;52.548;13.420;2022-08-16T00:38:33;32.65;;;19.83;;
72573;SDS011;60603;52.548;13.420;2022-08-16T00:40:59;33.63;;;20.42;;
72573;SDS011;60603;52.548;13.420;2022-08-16T00:43:27;27.90;;;19.27;;
72573;SDS011;60603;52.548;13.420;2022-08-16T00:46:06;27.90;;;19.80;;
72573;SDS011;60603;52.548;13.420;2022-08-16T00:48:37;28.50;;;18.23;;
72573;SDS011;60603;52.548;13.420;2022-08-16T00:51:04;27.92;;;18.70;;
72573;SDS011;60603;52.548;13.420;2022-08-16T00:53:30;31.85;;;19.15;;
72573;SDS011;60603;52.548;13.420;2022-08-16T00:55:56;28.90;;;19.00;;
72573;SDS011;60603;52.548;13.420;2022-08-16T00:58:25;25.70;;;16.70;;
72573;SDS011;60603;52.548;13.420;2022-08-16T01:00:52;23.00;;;15.77;;
72573;SDS011;60603;52.548;13.420;2022-08-16T01:03:18;27.73;;;16.58;;
72573;SDS011;60603;52.548;13.420;2022-08-16T01:05:45;27.35;;;17.85;;
72573;SDS011;60603;52.548;13.420;2022-08-16T01:08:12;27.10;;;17.15;;
72573;SDS011;60603;52.548;13.420;2022-08-16T01:10:39;26.25;;;16.40;;
72573;SDS011;60603;52.548;13.420;2022-08-16T01:13:07;25.65;;;15.75;;
72573;SDS011;60603;52.548;13.420;2022-08-16T01:15:35;23.73;;;16.10;;
72573;SDS011;60603;52.548;13.420;2022-08-16T01:18:03;24.90;;;15.63;;
72573;SDS011;60603;52.548;13.420;2022-08-16T01:20:31;25.00;;;16.58;;
72573;SDS011;60603;52.548;13.420;2022-08-16T01:23:10;25.63;;;15.60;;
72573;SDS011;60603;52.548;13.420;2022-08-16T01:25:40;26.30;;;15.45;;
72573;SDS011;60603;52.548;13.420;2022-08-16T01:28:10;23.15;;;15.25;;
72573;SDS011;60603;52.548;13.420;2022-08-16T01:30:39;26.55;;;16.45;;
72573;SDS011;60603;52.548;13.420;2022-08-16T01:33:07;24.90;;;15.45;;
72573;SDS011;60603;52.548;13.420;2022-08-16T01:35:45;24.73;;;15.52;;
72573;SDS011;60603;52.548;13.420;2022-08-16T01:38:27;26.40;;;15.38;;
72573;SDS011;60603;52.548;13.420;2022-08-16T01:40:58;22.35;;;14.95;;
72573;SDS011;60603;52.548;13.420;2022-08-16T01:43:29;25.50;;;16.90;;
72573;SDS011;60603;52.548;13.420;2022-08-16T01:45:56;24.70;;;16.85;;
72573;SDS011;60603;52.548;13.420;2022-08-16T01:48:24;26.27;;;15.18;;
72573;SDS011;60603;52.548;13.420;2022-08-16T01:50:53;24.92;;;15.88;;
72573;SDS011;60603;52.548;13.420;2022-08-16T01:53:19;25.45;;;16.35;;
72573;SDS011;60603;52.548;13.420;2022-08-16T01:55:45;23.17;;;15.60;;
72573;SDS011;60603;52.548;13.420;2022-08-16T01:58:14;23.08;;;14.98;;
72573;SDS011;60603;52.548;13.420;2022-08-16T02:00:41;27.35;;;16.48;;
72573;SDS011;60603;52.548;13.420;2022-08-16T02:03:07;28.23;;;17.52;;
72573;SDS011;60603;52.548;13.420;2022-08-16T02:05:33;26.60;;;16.45;;
72573;SDS011;60603;52.548;13.420;2022-08-16T02:07:59;27.13;;;16.63;;
72573;SDS011;60603;52.548;13.420;2022-08-16T02:10:25;25.30;;;17.15;;
72573;SDS011;60603;52.548;13.420;2022-08-16T02:12:51;29.10;;;17.60;;
72573;SDS011;60603;52.548;13.420;2022-08-16T02:15:18;30.38;;;18.02;;
72573;SDS011;60603;52.548;13.420;2022-08-16T02:17:46;29.60;;;17.83;;
72573;SDS011;60603;52.548;13.420;2022-08-16T02:20:11;29.30;;;18.42;;
72573;SDS011;60603;52.548;13.420;2022-08-16T02:22:37;29.50;;;17.88;;
72573;SDS011;60603;52.548;13.420;2022-08-16T02:25:05;29.90;;;18.35;;
72573;SDS011;60603;52.548;13.420;2022-08-16T02:27:35;28.58;;;18.30;;
72573;SDS011;60603;52.548;13.420;2022-08-16T02:30:00;28.60;;;18.23;;
72573;SDS011;60603;52.548;13.420;2022-08-16T02:32:26;29.08;;;18.70;;
72573;SDS011;60603;52.548;13.420;2022-08-16T02:34:52;29.40;;;18.60;;
72573;SDS011;60603;52.548;13.420;2022-08-16T02:37:17;30.88;;;18.05;;
72573;SDS011;60603;52.548;13.420;2022-08-16T02:39:45;28.55;;;17.80;;
72573;SDS011;60603;52.548;13.420;2022-08-16T02:42:11;31.75;;;18.38;;
72573;SDS011;60603;52.548;13.420;2022-08-16T02:44:37;27.77;;;18.35;;
72573;SDS011;60603;52.548;13.420;2022-08-16T02:47:03;30.25;;;18.40;;
72573;SDS011;60603;52.548;13.420;2022-08-16T02:49:29;31.85;;;19.48;;
72573;SDS011;60603;52.548;13.420;2022-08-16T02:51:55;28.30;;;18.35;;
72573;SDS011;60603;52.548;13.420;2022-08-16T02:54:20;32.83;;;18.98;;
72573;SDS011;60603;52.548;13.420;2022-08-16T02:56:46;30.60;;;19.27;;
72573;SDS011;60603;52.548;13.420;2022-08-16T02:59:12;30.92;;;19.45;;
72573;SDS011;60603;52.548;13.420;2022-08-16T03:01:37;30.42;;;18.98;;
72573;SDS011;60603;52.548;13.420;2022-08-16T03:04:04;31.90;;;19.02;;
72573;SDS011;60603;52.548;13.420;2022-08-16T03:06:31;31.90;;;20.15;;
72573;SDS011;60603;52.548;13.420;2022-08-16T03:08:58;28.85;;;19.02;;
72573;SDS011;60603;52.548;13.420;2022-08-16T03:11:24;34.67;;;20.08;;
72573;SDS011;60603;52.548;13.420;2022-08-16T03:13:51;31.58;;;19.77;;
72573;SDS011;60603;52.548;13.420;2022-08-16T03:16:19;44.67;;;23.27;;
72573;SDS011;60603;52.548;13.420;2022-08-16T03:18:45;31.98;;;20.60;;
72573;SDS011;60603;52.548;13.420;2022-08-16T03:21:11;30.88;;;19.98;;
72573;SDS011;60603;52.548;13.420;2022-08-16T03:23:37;33.03;;;20.55;;
72573;SDS011;60603;52.548;13.420;2022-08-16T03:26:03;31.02;;;19.30;;
72573;SDS011;60603;52.548;13.420;2022-08-16T03:28:28;31.83;;;20.00;;
72573;SDS011;60603;52.548;13.420;2022-08-16T03:30:54;37.22;;;20.95;;
72573;SDS011;60603;52.548;13.420;2022-08-16T03:33:20;33.38;;;19.85;;
72573;SDS011;60603;52.548;13.420;2022-08-16T03:35:46;33.78;;;19.33;;
72573;SDS011;60603;52.548;13.420;2022-08-16T03:38:13;31.38;;;19.42;;
72573;SDS011;60603;52.548;13.420;2022-08-16T03:40:40;29.95;;;19.38;;
72573;SDS011;60603;52.548;13.420;2022-08-16T03:43:07;33.08;;;19.98;;
72573;SDS011;60603;52.548;13.420;2022-08-16T03:45:34;30.45;;;19.52;;
72573;SDS011;60603;52.548;13.420;2022-08-16T03:48:01;32.80;;;20.15;;
72573;SDS011;60603;52.548;13.420;2022-08-16T03:50:28;35.33;;;21.38;;
72573;SDS011;60603;52.548;13.420;2022-08-16T03:52:54;34.55;;;19.83;;
72573;SDS011;60603;52.548;13.420;2022-08-16T03:55:20;34.28;;;20.10;;
72573;SDS011;60603;52.548;13.420;2022-08-16T03:57:46;35.58;;;21.23;;
72573;SDS011;60603;52.548;13.420;2022-08-16T04:00:18;33.63;;;20.17;;
72573;SDS011;60603;52.548;13.420;2022-08-16T04:02:46;32.13;;;19.88;;
72573;SDS011;60603;52.548;13.420;2022-08-16T04:05:13;34.58;;;20.25;;
72573;SDS011;60603;52.548;13.420;2022-08-16T04:07:40;35.60;;;20.33;;
72573;SDS011;60603;52.548;13.420;2022-08-16T04:10:07;34.92;;;20.27;;
72573;SDS011;60603;52.548;13.420;2022-08-16T04:12:34;36.70;;;20.90;;
72573;SDS011;60603;52.548;13.420;2022-08-16T04:15:00;35.80;;;21.73;;
72573;SDS011;60603;52.548;13.420;2022-08-16T04:17:27;37.10;;;21.33;;
72573;SDS011;60603;52.548;13.420;2022-08-16T04:19:54;37.47;;;22.92;;
72573;SDS011;60603;52.548;13.420;2022-08-16T04:22:20;40.25;;;23.42;;
72573;SDS011;60603;52.548;13.420;2022-08-16T04:24:47;37.45;;;21.92;;
72573;SDS011;60603;52.548;13.420;2022-08-16T04:27:13;36.83;;;21.92;;
72573;SDS011;60603;52.548;13.420;2022-08-16T04:29:39;35.08;;;21.35;;
72573;SDS011;60603;52.548;13.420;2022-08-16T04:32:05;36.33;;;21.30;;
72573;SDS011;60603;52.548;13.420;2022-08-16T04:34:31;34.90;;;21.88;;
72573;SDS011;60603;52.548;13.420;2022-08-16T04:36:59;33.38;;;20.73;;
72573;SDS011;60603;52.548;13.420;2022-08-16T04:39:25;33.90;;;21.27;;
72573;SDS011;60603;52.548;13.420;2022-08-16T04:41:51;29.15;;;19.42;;
72573;SDS011;60603;52.548;13.420;2022-08-16T04:44:17;31.52;;;19.30;;
72573;SDS011;60603;52.548;13.420;2022-08-16T04:46:43;28.58;;;19.17;;
72573;SDS011;60603;52.548;13.420;2022-08-16T04:49:09;29.30;;;19.38;;
72573;SDS011;60603;52.548;13.420;2022-08-16T04:51:36;27.77;;;18.17;;
72573;SDS011;60603;52.548;13.420;2022-08-16T04:54:04;29.10;;;17.75;;
72573;SDS011;60603;52.548;13.420;2022-08-16T04:56:30;26.35;;;17.73;;
72573;SDS011;60603;52.548;13.420;2022-08-16T04:58:55;28.52;;;18.23;;
72573;SDS011;60603;52.548;13.420;2022-08-16T05:01:22;27.40;;;18.08;;
72573;SDS011;60603;52.548;13.420;2022-08-16T05:03:47;24.63;;;16.98;;
72573;SDS011;60603;52.548;13.420;2022-08-16T05:06:13;25.17;;;16.05;;
72573;SDS011;60603;52.548;13.420;2022-08-16T05:08:39;24.20;;;16.25;;
72573;SDS011;60603;52.548;13.420;2022-08-16T05:11:05;22.33;;;14.98;;
72573;SDS011;60603;52.548;13.420;2022-08-16T05:13:33;21.88;;;14.40;;
72573;SDS011;60603;52.548;13.420;2022-08-16T05:16:00;17.75;;;13.73;;
72573;SDS011;60603;52.548;13.420;2022-08-16T05:18:26;17.33;;;12.25;;
72573;SDS011;60603;52.548;13.420;2022-08-16T05:20:52;16.35;;;11.63;;
72573;SDS011;60603;52.548;13.420;2022-08-16T05:23:17;18.05;;;11.98;;
72573;SDS011;60603;52.548;13.420;2022-08-16T05:25:43;24.75;;;11.40;;
72573;SDS011;60603;52.548;13.420;2022-08-16T05:28:09;15.05;;;10.57;;
72573;SDS011;60603;52.548;13.420;2022-08-16T05:30:36;14.73;;;10.25;;
72573;SDS011;60603;52.548;13.420;2022-08-16T05:33:02;15.55;;;9.88;;
72573;SDS011;60603;52.548;13.420;2022-08-16T05:35:28;12.85;;;9.70;;
72573;SDS011;60603;52.548;13.420;2022-08-16T05:37:54;15.85;;;11.00;;
72573;SDS011;60603;52.548;13.420;2022-08-16T05:40:20;13.85;;;10.18;;
72573;SDS011;60603;52.548;13.420;2022-08-16T05:42:46;14.27;;;10.23;;
72573;SDS011;60603;52.548;13.420;2022-08-16T05:45:12;13.50;;;9.38;;
72573;SDS011;60603;52.548;13.420;2022-08-16T05:47:38;12.65;;;9.40;;
72573;SDS011;60603;52.548;13.420;2022-08-16T05:50:04;13.93;;;8.70;;
72573;SDS011;60603;52.548;13.420;2022-08-16T05:52:31;11.52;;;8.63;;
72573;SDS011;60603;52.548;13.420;2022-08-16T05:54:57;13.50;;;9.40;;
72573;SDS011;60603;52.548;13.420;2022-08-16T05:57:22;12.07;;;9.13;;
72573;SDS011;60603;52.548;13.420;2022-08-16T05:59:49;14.30;;;9.55;;
72573;SDS011;60603;52.548;13.420;2022-08-16T06:02:15;15.15;;;10.38;;
72573;SDS011;60603;52.548;13.420;2022-08-16T06:04:41;15.70;;;10.70;;
72573;SDS011;60603;52.548;13.420;2022-08-16T06:07:07;16.05;;;11.02;;
72573;SDS011;60603;52.548;13.420;2022-08-16T06:09:33;15.65;;;10.75;;
72573;SDS011;60603;52.548;13.420;2022-08-16T06:11:59;13.57;;;9.98;;
72573;SDS011;60603;52.548;13.420;2022-08-16T06:14:26;13.82;;;11.45;;
72573;SDS011;60603;52.548;13.420;2022-08-16T06:16:52;14.18;;;9.85;;
72573;SDS011;60603;52.548;13.420;2022-08-16T06:19:18;15.35;;;10.95;;
72573;SDS011;60603;52.548;13.420;2022-08-16T06:21:44;15.95;;;10.57;;
72573;SDS011;60603;52.548;13.420;2022-08-16T06:24:11;17.45;;;11.52;;
72573;SDS011;60603;52.548;13.420;2022-08-16T06:26:37;13.77;;;10.48;;
72573;SDS011;60603;52.548;13.420;2022-08-16T06:29:03;13.15;;;10.77;;
72573;SDS011;60603;52.548;13.420;2022-08-16T06:31:28;16.90;;;12.05;;
72573;SDS011;60603;52.548;13.420;2022-08-16T06:33:54;13.95;;;10.63;;
72573;SDS011;60603;52.548;13.420;2022-08-16T06:36:21;13.85;;;10.65;;
72573;SDS011;60603;52.548;13.420;2022-08-16T06:38:48;14.82;;;10.15;;
72573;SDS011;60603;52.548;13.420;2022-08-16T06:41:15;12.50;;;10.13;;
72573;SDS011;60603;52.548;13.420;2022-08-16T06:43:41;16.55;;;10.20;;
72573;SDS011;60603;52.548;13.420;2022-08-16T06:46:08;13.00;;;9.85;;
72573;SDS011;60603;52.548;13.420;2022-08-16T06:48:49;12.52;;;10.00;;
72573;SDS011;60603;52.548;13.420;2022-08-16T06:51:15;12.23;;;9.63;;
72573;SDS011;60603;52.548;13.420;2022-08-16T06:53:41;13.82;;;10.23;;
72573;SDS011;60603;52.548;13.420;2022-08-16T06:56:06;13.60;;;9.95;;
72573;SDS011;60603;52.548;13.420;2022-08-16T06:58:32;16.55;;;9.50;;
72573;SDS011;60603;52.548;13.420;2022-08-16T07:00:59;14.00;;;9.68;;
72573;SDS011;60603;52.548;13.420;2022-08-16T07:03:26;12.75;;;9.23;;
72573;SDS011;60603;52.548;13.420;2022-08-16T07:05:52;15.98;;;10.73;;
72573;SDS011;60603;52.548;13.420;2022-08-16T07:08:18;10.40;;;9.02;;
72573;SDS011;60603;52.548;13.420;2022-08-16T07:10:44;12.10;;;9.13;;
72573;SDS011;60603;52.548;13.420;2022-08-16T07:13:10;12.60;;;9.98;;
72573;SDS011;60603;52.548;13.420;2022-08-16T07:15:36;11.60;;;9.30;;
72573;SDS011;60603;52.548;13.420;2022-08-16T07:18:02;12.68;;;9.93;;
72573;SDS011;60603;52.548;13.420;2022-08-16T07:20:29;15.75;;;10.75;;
72573;SDS011;60603;52.548;13.420;2022-08-16T07:22:55;10.88;;;9.48;;
72573;SDS011;60603;52.548;13.420;2022-08-16T07:25:21;11.90;;;8.88;;
72573;SDS011;60603;52.548;13.420;2022-08-16T07:27:48;11.43;;;9.55;;
72573;SDS011;60603;52.548;13.420;2022-08-16T07:30:14;13.85;;;9.52;;
72573;SDS011;60603;52.548;13.420;2022-08-16T07:32:41;13.10;;;9.18;;
72573;SDS011;60603;52.548;13.420;2022-08-16T07:35:07;13.52;;;9.38;;
72573;SDS011;60603;52.548;13.420;2022-08-16T07:37:33;12.05;;;8.98;;
72573;SDS011;60603;52.548;13.420;2022-08-16T07:39:59;12.57;;;9.07;;
72573;SDS011;60603;52.548;13.420;2022-08-16T07:42:25;13.50;;;8.82;;
72573;SDS011;60603;52.548;13.420;2022-08-16T07:44:52;11.82;;;9.02;;
72573;SDS011;60603;52.548;13.420;2022-08-16T07:47:18;14.88;;;10.88;;
72573;SDS011;60603;52.548;13.420;2022-08-16T07:49:44;11.93;;;9.57;;
72573;SDS011;60603;52.548;13.420;2022-08-16T07:52:09;12.70;;;8.93;;
72573;SDS011;60603;52.548;13.420;2022-08-16T07:54:35;15.65;;;10.32;;
72573;SDS011;60603;52.548;13.420;2022-08-16T07:57:01;10.90;;;9.50;;
72573;SDS011;60603;52.548;13.420;2022-08-16T07:59:27;13.00;;;9.68;;
72573;SDS011;60603;52.548;13.420;2022-08-16T08:01:53;13.02;;;10.00;;
72573;SDS011;60603;52.548;13.420;2022-08-16T08:04:19;14.75;;;9.90;;
72573;SDS011;60603;52.548;13.420;2022-08-16T08:06:44;13.70;;;10.23;;
72573;SDS011;60603;52.548;13.420;2022-08-16T08:09:10;14.10;;;9.77;;
72573;SDS011;60603;52.548;13.420;2022-08-16T08:11:37;15.23;;;9.80;;
72573;SDS011;60603;52.548;13.420;2022-08-16T08:14:03;13.80;;;10.63;;
72573;SDS011;60603;52.548;13.420;2022-08-16T08:16:30;16.02;;;10.70;;
72573;SDS011;60603;52.548;13.420;2022-08-16T08:18:57;13.18;;;9.93;;
72573;SDS011;60603;52.548;13.420;2022-08-16T08:21:24;11.20;;;9.25;;
72573;SDS011;60603;52.548;13.420;2022-08-16T08:23:50;11.65;;;8.88;;
72573;SDS011;60603;52.548;13.420;2022-08-16T08:26:17;10.80;;;8.75;;
72573;SDS011;60603;52.548;13.420;2022-08-16T08:28:43;12.40;;;9.30;;
72573;SDS011;60603;52.548;13.420;2022-08-16T08:31:09;11.55;;;9.05;;
72573;SDS011;60603;52.548;13.420;2022-08-16T08:33:35;15.82;;;10.55;;
72573;SDS011;60603;52.548;13.420;2022-08-16T08:36:02;13.93;;;10.73;;
72573;SDS011;60603;52.548;13.420;2022-08-16T08:38:32;11.75;;;9.07;;
72573;SDS011;60603;52.548;13.420;2022-08-16T08:41:00;13.40;;;9.35;;
72573;SDS011;60603;52.548;13.420;2022-08-16T08:43:26;17.15;;;10.27;;
72573;SDS011;60603;52.548;13.420;2022-08-16T08:45:53;15.57;;;11.50;;
72573;SDS011;60603;52.548;13.420;2022-08-16T08:48:20;16.65;;;11.20;;
72573;SDS011;60603;52.548;13.420;2022-08-16T08:50:46;15.38;;;10.10;;
72573;SDS011;60603;52.548;13.420;2022-08-16T08:53:12;14.38;;;10.73;;
72573;SDS011;60603;52.548;13.420;2022-08-16T08:55:39;16.13;;;10.32;;
72573;SDS011;60603;52.548;13.420;2022-08-16T08:58:05;15.00;;;8.88;;
72573;SDS011;60603;52.548;13.420;2022-08-16T09:00:31;12.70;;;9.95;;
72573;SDS011;60603;52.548;13.420;2022-08-16T09:02:57;16.25;;;9.38;;
72573;SDS011;60603;52.548;13.420;2022-08-16T09:05:23;13.45;;;9.65;;
72573;SDS011;60603;52.548;13.420;2022-08-16T09:07:50;12.43;;;7.97;;
72573;SDS011;60603;52.548;13.420;2022-08-16T09:10:16;15.65;;;8.48;;
72573;SDS011;60603;52.548;13.420;2022-08-16T09:12:42;11.15;;;8.07;;
72573;SDS011;60603;52.548;13.420;2022-08-16T09:15:08;12.57;;;8.95;;
72573;SDS011;60603;52.548;13.420;2022-08-16T09:17:36;10.95;;;7.30;;
72573;SDS011;60603;52.548;13.420;2022-08-16T09:20:02;12.68;;;7.97;;
72573;SDS011;60603;52.548;13.420;2022-08-16T09:22:29;11.70;;;8.65;;
72573;SDS011;60603;52.548;13.420;2022-08-16T09:24:55;18.23;;;10.63;;
72573;SDS011;60603;52.548;13.420;2022-08-16T09:27:21;13.23;;;8.93;;
72573;SDS011;60603;52.548;13.420;2022-08-16T09:29:47;13.63;;;9.13;;
72573;SDS011;60603;52.548;13.420;2022-08-16T09:32:13;16.08;;;9.00;;
72573;SDS011;60603;52.548;13.420;2022-08-16T09:34:38;13.45;;;9.40;;
72573;SDS011;60603;52.548;13.420;2022-08-16T09:37:04;12.00;;;8.65;;
72573;SDS011;60603;52.548;13.420;2022-08-16T09:39:30;14.80;;;10.68;;
72573;SDS011;60603;52.548;13.420;2022-08-16T09:41:55;15.35;;;8.48;;
72573;SDS011;60603;52.548;13.420;2022-08-16T09:44:27;13.50;;;9.25;;
72573;SDS011;60603;52.548;13.420;2022-08-16T09:46:53;14.23;;;9.20;;
72573;SDS011;60603;52.548;13.420;2022-08-16T09:49:20;12.68;;;8.65;;
72573;SDS011;60603;52.548;13.420;2022-08-16T09:51:47;15.65;;;9.73;;
72573;SDS011;60603;52.548;13.420;2022-08-16T09:54:18;14.32;;;10.63;;
72573;SDS011;60603;52.548;13.420;2022-08-16T09:56:44;13.93;;;9.55;;
72573;SDS011;60603;52.548;13.420;2022-08-16T09:59:10;12.57;;;9.27;;
72573;SDS011;60603;52.548;13.420;2022-08-16T10:01:36;10.60;;;8.70;;
72573;SDS011;60603;52.548;13.420;2022-08-16T10:04:03;11.57;;;8.35;;
72573;SDS011;60603;52.548;13.420;2022-08-16T10:06:29;11.82;;;9.32;;
72573;SDS011;60603;52.548;13.420;2022-08-16T10:08:55;12.70;;;7.85;;
72573;SDS011;60603;52.548;13.420;2022-08-16T10:11:21;12.43;;;9.20;;
72573;SDS011;60603;52.548;13.420;2022-08-16T10:14:06;13.77;;;9.18;;
72573;SDS011;60603;52.548;13.420;2022-08-16T10:16:31;12.43;;;8.65;;
72573;SDS011;60603;52.548;13.420;2022-08-16T10:18:57;13.75;;;9.23;;
72573;SDS011;60603;52.548;13.420;2022-08-16T10:21:23;12.52;;;8.40;;
72573;SDS011;60603;52.548;13.420;2022-08-16T10:23:49;11.55;;;8.88;;
72573;SDS011;60603;52.548;13.420;2022-08-16T10:26:16;12.98;;;8.20;;
72573;SDS011;60603;52.548;13.420;2022-08-16T10:28:42;11.82;;;8.45;;
72573;SDS011;60603;52.548;13.420;2022-08-16T10:31:08;12.32;;;8.00;;
72573;SDS011;60603;52.548;13.420;2022-08-16T10:33:34;10.35;;;7.18;;
72573;SDS011;60603;52.548;13.420;2022-08-16T10:36:02;10.77;;;7.40;;
72573;SDS011;60603;52.548;13.420;2022-08-16T10:38:32;13.73;;;8.13;;
72573;SDS011;60603;52.548;13.420;2022-08-16T10:40:58;11.02;;;7.32;;
72573;SDS011;60603;52.548;13.420;2022-08-16T10:43:25;10.95;;;7.07;;
72573;SDS011;60603;52.548;13.420;2022-08-16T10:45:50;10.85;;;7.72;;
72573;SDS011;60603;52.548;13.420;2022-08-16T10:48:16;11.70;;;7.25;;
72573;SDS011;60603;52.548;13.420;2022-08-16T10:50:43;10.15;;;7.47;;
72573;SDS011;60603;52.548;13.420;2022-08-16T10:53:09;10.07;;;7.63;;
72573;SDS011;60603;52.548;13.420;2022-08-16T10:55:36;12.38;;;7.40;;
72573;SDS011;60603;52.548;13.420;2022-08-16T10:58:07;9.27;;;6.88;;
72573;SDS011;60603;52.548;13.420;2022-08-16T11:00:37;12.43;;;7.57;;
72573;SDS011;60603;52.548;13.420;2022-08-16T11:03:05;9.90;;;7.30;;
72573;SDS011;60603;52.548;13.420;2022-08-16T11:05:32;11.60;;;8.48;;
72573;SDS011;60603;52.548;13.420;2022-08-16T11:08:01;10.75;;;7.13;;
72573;SDS011;60603;52.548;13.420;2022-08-16T11:10:28;11.50;;;7.00;;
72573;SDS011;60603;52.548;13.420;2022-08-16T11:12:56;12.40;;;7.03;;
72573;SDS011;60603;52.548;13.420;2022-08-16T11:15:22;12.10;;;7.60;;
72573;SDS011;60603;52.548;13.420;2022-08-16T11:17:49;10.05;;;6.47;;
72573;SDS011;60603;52.548;13.420;2022-08-16T11:20:15;12.55;;;7.90;;
72573;SDS011;60603;52.548;13.420;2022-08-16T11:22:42;10.85;;;7.07;;
72573;SDS011;60603;52.548;13.420;2022-08-16T11:25:09;10.57;;;7.32;;
72573;SDS011;60603;52.548;13.420;2022-08-16T11:27:36;10.05;;;7.50;;
72573;SDS011;60603;52.548;13.420;2022-08-16T11:30:02;9.00;;;7.15;;
72573;SDS011;60603;52.548;13.420;2022-08-16T11:32:29;11.10;;;7.82;;
72573;SDS011;60603;52.548;13.420;2022-08-16T11:34:54;11.57;;;7.65;;
72573;SDS011;60603;52.548;13.420;2022-08-16T11:37:21;10.35;;;7.45;;
72573;SDS011;60603;52.548;13.420;2022-08-16T11:39:47;14.43;;;7.80;;
72573;SDS011;60603;52.548;13.420;2022-08-16T11:42:13;10.48;;;7.22;;
72573;SDS011;60603;52.548;13.420;2022-08-16T11:44:39;11.48;;;7.50;;
72573;SDS011;60603;52.548;13.420;2022-08-16T11:47:05;12.60;;;8.15;;
72573;SDS011;60603;52.548;13.420;2022-08-16T11:49:31;13.43;;;7.25;;
72573;SDS011;60603;52.548;13.420;2022-08-16T11:51:56;10.90;;;7.00;;
72573;SDS011;60603;52.548;13.420;2022-08-16T11:54:23;12.85;;;8.10;;
72573;SDS011;60603;52.548;13.420;2022-08-16T11:56:51;9.85;;;7.68;;
72573;SDS011;60603;52.548;13.420;2022-08-16T11:59:17;12.90;;;8.18;;
72573;SDS011;60603;52.548;13.420;2022-08-16T12:01:44;11.80;;;7.53;;
72573;SDS011;60603;52.548;13.420;2022-08-16T12:04:10;13.07;;;7.50;;
72573;SDS011;60603;52.548;13.420;2022-08-16T12:06:36;10.98;;;7.95;;
72573;SDS011;60603;52.548;13.420;2022-08-16T12:09:03;10.95;;;7.22;;
72573;SDS011;60603;52.548;13.420;2022-08-16T12:11:30;11.10;;;7.63;;
72573;SDS011;60603;52.548;13.420;2022-08-16T12:14:00;10.18;;;6.72;;
72573;SDS011;60603;52.548;13.420;2022-08-16T12:16:27;11.38;;;7.78;;
72573;SDS011;60603;52.548;13.420;2022-08-16T12:18:53;11.50;;;7.18;;
72573;SDS011;60603;52.548;13.420;2022-08-16T12:21:19;11.45;;;7.57;;
72573;SDS011;60603;52.548;13.420;2022-08-16T12:23:45;12.43;;;7.78;;
72573;SDS011;60603;52.548;13.420;2022-08-16T12:26:11;11.15;;;7.53;;
72573;SDS011;60603;52.548;13.420;2022-08-16T12:28:37;9.52;;;7.28;;
72573;SDS011;60603;52.548;13.420;2022-08-16T12:31:02;10.45;;;7.07;;
72573;SDS011;60603;52.548;13.420;2022-08-16T12:33:28;11.98;;;7.82;;
72573;SDS011;60603;52.548;13.420;2022-08-16T12:35:55;9.95;;;7.45;;
72573;SDS011;60603;52.548;13.420;2022-08-16T12:38:21;9.48;;;7.00;;
72573;SDS011;60603;52.548;13.420;2022-08-16T12:40:48;13.23;;;8.52;;
72573;SDS011;60603;52.548;13.420;2022-08-16T12:43:15;9.95;;;7.63;;
72573;SDS011;60603;52.548;13.420;2022-08-16T12:45:43;13.05;;;8.20;;
72573;SDS011;60603;52.548;13.420;2022-08-16T12:48:11;10.73;;;7.60;;
72573;SDS011;60603;52.548;13.420;2022-08-16T12:50:57;8.80;;;6.68;;
72573;SDS011;60603;52.548;13.420;2022-08-16T12:53:24;10.18;;;6.45;;
72573;SDS011;60603;52.548;13.420;2022-08-16T12:55:50;9.13;;;6.85;;
72573;SDS011;60603;52.548;13.420;2022-08-16T12:58:16;9.55;;;5.82;;
72573;SDS011;60603;52.548;13.420;2022-08-16T13:00:42;11.75;;;6.78;;
72573;SDS011;60603;52.548;13.420;2022-08-16T13:03:08;9.70;;;6.93;;
72573;SDS011;60603;52.548;13.420;2022-08-16T13:05:35;10.15;;;6.70;;
72573;SDS011;60603;52.548;13.420;2022-08-16T13:08:06;10.82;;;8.07;;
72573;SDS011;60603;52.548;13.420;2022-08-16T13:10:36;10.75;;;7.30;;
72573;SDS011;60603;52.548;13.420;2022-08-16T13:13:03;11.43;;;7.32;;
72573;SDS011;60603;52.548;13.420;2022-08-16T13:15:30;11.00;;;7.20;;
72573;SDS011;60603;52.548;13.420;2022-08-16T13:17:56;14.25;;;7.57;;
72573;SDS011;60603;52.548;13.420;2022-08-16T13:20:23;12.30;;;7.60;;
72573;SDS011;60603;52.548;13.420;2022-08-16T13:23:01;12.80;;;7.40;;
72573;SDS011;60603;52.548;13.420;2022-08-16T13:25:32;13.35;;;7.28;;
72573;SDS011;60603;52.548;13.420;2022-08-16T13:28:00;11.68;;;7.60;;
72573;SDS011;60603;52.548;13.420;2022-08-16T13:30:28;12.48;;;7.55;;
72573;SDS011;60603;52.548;13.420;2022-08-16T13:32:55;16.13;;;7.68;;
72573;SDS011;60603;52.548;13.420;2022-08-16T13:35:21;9.60;;;7.43;;
72573;SDS011;60603;52.548;13.420;2022-08-16T13:37:48;12.30;;;7.93;;
72573;SDS011;60603;52.548;13.420;2022-08-16T13:40:14;10.52;;;7.05;;
72573;SDS011;60603;52.548;13.420;2022-08-16T13:42:41;12.23;;;7.22;;
72573;SDS011;60603;52.548;13.420;2022-08-16T13:45:09;11.85;;;6.85;;
72573;SDS011;60603;52.548;13.420;2022-08-16T13:47:36;8.65;;;6.38;;
72573;SDS011;60603;52.548;13.420;2022-08-16T13:50:01;8.77;;;6.25;;
72573;SDS011;60603;52.548;13.420;2022-08-16T13:52:29;10.57;;;6.53;;
72573;SDS011;60603;52.548;13.420;2022-08-16T13:54:55;7.65;;;5.85;;
72573;SDS011;60603;52.548;13.420;2022-08-16T13:57:21;8.85;;;5.93;;
72573;SDS011;60603;52.548;13.420;2022-08-16T13:59:47;10.90;;;5.95;;
72573;SDS011;60603;52.548;13.420;2022-08-16T14:02:13;8.50;;;5.32;;
72573;SDS011;60603;52.548;13.420;2022-08-16T14:04:39;8.73;;;5.07;;
72573;SDS011;60603;52.548;13.420;2022-08-16T14:07:11;9.00;;;5.57;;
72573;SDS011;60603;52.548;13.420;2022-08-16T14:09:38;9.95;;;6.38;;
72573;SDS011;60603;52.548;13.420;2022-08-16T14:12:06;7.38;;;5.10;;
72573;SDS011;60603;52.548;13.420;2022-08-16T14:14:42;8.35;;;5.53;;